Time,TemperatureF,DewpointF,PressureIn,WindDirection,WindDirectionDegrees,WindSpeedMPH,WindSpeedGustMPH,Humidity,HourlyPrecipIn,Conditions,Clouds,dailyrainin,SoftwareType,DateUTC
2013-05-09 00:02:00,68.0,56.0,-100.00,East,90,0.0,0.0,67,-99.99,,,-99.99,,2013-05-09 05:02:00,
2013-05-09 00:12:00,68.0,56.0,-100.00,East,90,0.0,0.0,67,-99.99,,,-99.99,,2013-05-09 05:12:00,
2013-05-09 00:42:00,66.0,58.0,-100.00,NW,320,0.0,0.0,74,-99.99,,,-99.99,,2013-05-09 05:42:00,
2013-05-09 00:52:00,66.0,57.0,-100.00,SSW,195,0.0,1.0,73,-99.99,,,-99.99,,2013-05-09 05:52:00,
2013-05-09 01:02:00,66.0,57.0,-100.00,SSW,195,0.0,1.0,73,-99.99,,,-99.99,,2013-05-09 06:02:00,
2013-05-09 01:12:00,66.0,59.0,-100.00,SSW,195,1.0,1.0,79,-99.99,,,-99.99,,2013-05-09 06:12:00,
2013-05-09 01:21:00,65.0,59.0,-100.00,South,180,0.0,0.0,82,-99.99,,,-99.99,,2013-05-09 06:21:00,
2013-05-09 01:32:00,65.0,59.0,-100.00,South,180,0.0,0.0,82,-99.99,,,-99.99,,2013-05-09 06:32:00,
2013-05-09 01:42:00,65.0,60.0,-100.00,SE,145,0.0,0.0,83,-99.99,,,-99.99,,2013-05-09 06:42:00,
2013-05-09 01:52:00,64.0,60.0,-100.00,WSW,250,0.0,1.0,86,-99.99,,,-99.99,,2013-05-09 06:52:00,
2013-05-09 02:01:00,64.0,60.0,-100.00,WSW,250,0.0,1.0,86,-99.99,,,-99.99,,2013-05-09 07:01:00,
2013-05-09 02:12:00,64.0,60.0,-100.00,SE,145,0.0,1.0,86,-99.99,,,-99.99,,2013-05-09 07:12:00,
2013-05-09 02:21:00,64.0,60.0,-100.00,SE,145,0.0,0.0,88,-99.99,,,-99.99,,2013-05-09 07:21:00,
2013-05-09 02:32:00,64.0,60.0,-100.00,SE,145,0.0,0.0,88,-99.99,,,-99.99,,2013-05-09 07:32:00,
2013-05-09 02:42:00,64.0,61.0,-100.00,South,185,0.0,0.0,88,-99.99,,,-99.99,,2013-05-09 07:42:00,
2013-05-09 02:52:00,64.0,60.0,-100.00,South,180,0.0,0.0,88,-99.99,,,-99.99,,2013-05-09 07:52:00,
2013-05-09 03:02:00,64.0,60.0,-100.00,South,180,0.0,0.0,88,-99.99,,,-99.99,,2013-05-09 08:02:00,
2013-05-09 03:11:00,64.0,60.0,-100.00,SSE,165,1.0,1.0,88,-99.99,,,-99.99,,2013-05-09 08:11:00,
2013-05-09 03:21:00,64.0,61.0,-100.00,WNW,285,0.0,0.0,89,-99.99,,,-99.99,,2013-05-09 08:21:00,
2013-05-09 03:30:00,64.0,61.0,-100.00,South,180,3.0,4.0,90,-99.99,,,-99.99,,2013-05-09 08:30:00,
2013-05-09 03:32:00,64.0,61.0,-100.00,WNW,285,0.0,0.0,89,-99.99,,,-99.99,,2013-05-09 08:32:00,
2013-05-09 03:42:00,64.0,61.0,-100.00,SSW,195,2.0,3.0,90,-99.99,,,-99.99,,2013-05-09 08:42:00,
2013-05-09 03:52:00,64.0,61.0,-100.00,SW,220,2.0,3.0,90,-99.99,,,-99.99,,2013-05-09 08:52:00,
2013-05-09 04:02:00,64.0,61.0,-100.00,SW,220,2.0,3.0,90,-99.99,,,-99.99,,2013-05-09 09:02:00,
2013-05-09 04:11:00,64.0,61.0,-100.00,South,180,3.0,4.0,90,-99.99,,,-99.99,,2013-05-09 09:11:00,
2013-05-09 04:21:00,64.0,61.0,-100.00,South,180,3.0,4.0,90,-99.99,,,-99.99,,2013-05-09 09:21:00,
2013-05-09 04:43:00,63.0,61.0,-100.00,SSE,160,1.0,2.0,91,-99.99,,,-99.99,,2013-05-09 09:43:00,
2013-05-09 04:53:00,64.0,61.0,-100.00,South,170,0.0,1.0,91,-99.99,,,-99.99,,2013-05-09 09:53:00,
2013-05-09 05:02:00,64.0,61.0,-100.00,South,170,0.0,1.0,91,-99.99,,,-99.99,,2013-05-09 10:02:00,
2013-05-09 05:12:00,64.0,61.0,-100.00,South,190,3.0,3.0,90,-99.99,,,-99.99,,2013-05-09 10:12:00,
2013-05-09 05:22:00,65.0,61.0,-100.00,South,180,4.0,4.0,87,-99.99,,,-99.99,,2013-05-09 10:22:00,
2013-05-09 05:33:00,65.0,61.0,-100.00,South,180,4.0,4.0,87,-99.99,,,-99.99,,2013-05-09 10:33:00,
2013-05-09 05:42:00,65.0,60.0,-100.00,South,175,4.0,6.0,85,-99.99,,,-99.99,,2013-05-09 10:42:00,
2013-05-09 05:52:00,65.0,59.0,-100.00,SSE,165,6.0,8.0,81,-99.99,,,-99.99,,2013-05-09 10:52:00,
2013-05-09 06:02:00,65.0,59.0,-100.00,SSE,165,6.0,8.0,81,-99.99,,,-99.99,,2013-05-09 11:02:00,
2013-05-09 06:12:00,66.0,59.0,-100.00,SSE,150,1.0,2.0,78,-99.99,,,-99.99,,2013-05-09 11:12:00,
2013-05-09 06:22:00,66.0,58.0,-100.00,SSE,150,2.0,3.0,77,-99.99,,,-99.99,,2013-05-09 11:22:00,
2013-05-09 06:32:00,66.0,58.0,-100.00,SSE,150,2.0,3.0,77,-99.99,,,-99.99,,2013-05-09 11:32:00,
2013-05-09 06:41:00,65.0,57.0,-100.00,SE,145,4.0,6.0,76,-99.99,,,-99.99,,2013-05-09 11:41:00,
2013-05-09 06:52:00,65.0,57.0,-100.00,SSE,165,4.0,6.0,75,-99.99,,,-99.99,,2013-05-09 11:52:00,
2013-05-09 07:01:00,65.0,57.0,-100.00,SSE,165,4.0,6.0,75,-99.99,,,-99.99,,2013-05-09 12:01:00,
2013-05-09 07:11:00,65.0,57.0,-100.00,South,170,4.0,6.0,74,-99.99,,,-99.99,,2013-05-09 12:11:00,
2013-05-09 07:22:00,65.0,57.0,-100.00,SSE,155,4.0,6.0,73,-99.99,,,-99.99,,2013-05-09 12:22:00,
2013-05-09 07:32:00,65.0,57.0,-100.00,SSE,155,4.0,6.0,73,-99.99,,,-99.99,,2013-05-09 12:32:00,
2013-05-09 07:42:00,66.0,56.0,-100.00,SSE,155,4.0,8.0,71,-99.99,,,-99.99,,2013-05-09 12:42:00,
2013-05-09 07:52:00,66.0,56.0,-100.00,SSE,155,6.0,8.0,70,-99.99,,,-99.99,,2013-05-09 12:52:00,
2013-05-09 08:01:00,66.0,56.0,-100.00,SSE,155,6.0,8.0,70,-99.99,,,-99.99,,2013-05-09 13:01:00,
2013-05-09 08:12:00,67.0,56.0,-100.00,SSE,165,4.0,6.0,69,-99.99,,,-99.99,,2013-05-09 13:12:00,
2013-05-09 08:22:00,68.0,55.0,-100.00,SE,145,9.0,10.0,64,-99.99,,,-99.99,,2013-05-09 13:22:00,
2013-05-09 08:32:00,68.0,55.0,-100.00,SE,145,9.0,10.0,64,-99.99,,,-99.99,,2013-05-09 13:32:00,
2013-05-09 08:42:00,68.0,55.0,-100.00,SE,135,6.0,9.0,63,-99.99,,,-99.99,,2013-05-09 13:42:00,
2013-05-09 08:52:00,70.0,56.0,-100.00,SE,130,6.0,8.0,62,-99.99,,,-99.99,,2013-05-09 13:52:00,
2013-05-09 09:01:00,70.0,56.0,-100.00,SE,130,6.0,8.0,62,-99.99,,,-99.99,,2013-05-09 14:01:00,
2013-05-09 09:11:00,72.0,58.0,-100.00,SSE,155,4.0,6.0,61,-99.99,,,-99.99,,2013-05-09 14:11:00,
2013-05-09 09:21:00,71.0,57.0,-100.00,South,180,9.0,11.0,61,-99.99,,,-99.99,,2013-05-09 14:21:00,
2013-05-09 09:32:00,71.0,57.0,-100.00,South,180,9.0,11.0,61,-99.99,,,-99.99,,2013-05-09 14:32:00,
2013-05-09 09:42:00,70.0,56.0,-100.00,SSW,200,6.0,9.0,62,-99.99,,,-99.99,,2013-05-09 14:42:00,
2013-05-09 09:52:00,70.0,57.0,-100.00,SSW,195,3.0,4.0,64,-99.99,,,-99.99,,2013-05-09 14:52:00,
2013-05-09 10:01:00,70.0,57.0,-100.00,SSW,195,3.0,4.0,64,-99.99,,,-99.99,,2013-05-09 15:01:00,
2013-05-09 10:11:00,70.0,58.0,-100.00,SW,235,1.0,2.0,66,-99.99,,,-99.99,,2013-05-09 15:11:00,
2013-05-09 10:22:00,70.0,59.0,-100.00,ESE,115,3.0,3.0,69,-99.99,,,-99.99,,2013-05-09 15:22:00,
2013-05-09 10:33:00,70.0,59.0,-100.00,ESE,115,3.0,3.0,69,-99.99,,,-99.99,,2013-05-09 15:33:00,
2013-05-09 10:43:00,71.0,59.0,-100.00,SE,125,4.0,6.0,66,-99.99,,,-99.99,,2013-05-09 15:43:00,
2013-05-09 10:53:00,71.0,59.0,-100.00,ESE,120,4.0,8.0,67,-99.99,,,-99.99,,2013-05-09 15:53:00,
2013-05-09 11:03:00,71.0,59.0,-100.00,ESE,120,4.0,8.0,67,-99.99,,,-99.99,,2013-05-09 16:03:00,
2013-05-09 11:12:00,72.0,60.0,-100.00,South,180,4.0,9.0,65,-99.99,,,-99.99,,2013-05-09 16:12:00,
2013-05-09 11:22:00,73.0,60.0,-100.00,SSE,165,8.0,10.0,65,-99.99,,,-99.99,,2013-05-09 16:22:00,
2013-05-09 11:33:00,73.0,60.0,-100.00,SSE,165,8.0,10.0,65,-99.99,,,-99.99,,2013-05-09 16:33:00,
2013-05-09 11:42:00,72.0,60.0,-100.00,South,180,6.0,9.0,65,-99.99,,,-99.99,,2013-05-09 16:42:00,
2013-05-09 11:53:00,73.0,60.0,-100.00,SSE,165,4.0,6.0,64,-99.99,,,-99.99,,2013-05-09 16:53:00,
2013-05-09 12:00:00,69.0,63.0,-100.00,SSW,205,9.0,14.0,81,-99.99,,,-99.99,,2013-05-09 17:00:00,
2013-05-09 12:02:00,73.0,60.0,-100.00,SSE,165,4.0,6.0,64,-99.99,,,-99.99,,2013-05-09 17:02:00,
2013-05-09 12:12:00,73.0,59.0,-100.00,SSE,165,12.0,16.0,63,-99.99,,,-99.99,,2013-05-09 17:12:00,
2013-05-09 12:21:00,73.0,59.0,-100.00,South,170,10.0,14.0,62,-99.99,,,-99.99,,2013-05-09 17:21:00,
2013-05-09 12:32:00,73.0,59.0,-100.00,South,170,10.0,14.0,62,-99.99,,,-99.99,,2013-05-09 17:32:00,
2013-05-09 12:42:00,69.0,63.0,-100.00,SSW,205,9.0,14.0,81,-99.99,,,-99.99,,2013-05-09 17:42:00,
2013-05-09 12:55:00,69.0,63.0,-100.00,SSW,205,9.0,14.0,81,-99.99,,,-99.99,,2013-05-09 17:55:00,
2013-05-09 13:12:00,67.0,65.0,-100.00,SSW,205,10.0,12.0,93,-99.99,,,-99.99,,2013-05-09 18:12:00,
2013-05-09 13:21:00,66.0,64.0,-100.00,WSW,245,4.0,9.0,93,-99.99,,,-99.99,,2013-05-09 18:21:00,
2013-05-09 13:32:00,66.0,64.0,-100.00,WSW,245,4.0,9.0,93,-99.99,,,-99.99,,2013-05-09 18:32:00,
2013-05-09 13:42:00,66.0,65.0,-100.00,SW,225,10.0,21.0,94,-99.99,,,-99.99,,2013-05-09 18:42:00,
2013-05-09 13:52:00,64.0,62.0,-100.00,SW,225,6.0,9.0,94,-99.99,,,-99.99,,2013-05-09 18:52:00,
2013-05-09 14:01:00,64.0,62.0,-100.00,SW,225,6.0,9.0,94,-99.99,,,-99.99,,2013-05-09 19:01:00,
2013-05-09 14:12:00,65.0,63.0,-100.00,South,185,2.0,6.0,95,-99.99,,,-99.99,,2013-05-09 19:12:00,
2013-05-09 14:21:00,64.0,63.0,-100.00,ESE,115,4.0,4.0,95,-99.99,,,-99.99,,2013-05-09 19:21:00,
2013-05-09 14:30:00,67.0,65.0,-100.00,East,90,4.0,6.0,95,-99.99,,,-99.99,,2013-05-09 19:30:00,
2013-05-09 14:31:00,64.0,63.0,-100.00,ESE,115,4.0,4.0,95,-99.99,,,-99.99,,2013-05-09 19:31:00,
2013-05-09 14:41:00,64.0,63.0,-100.00,ESE,115,4.0,4.0,95,-99.99,,,-99.99,,2013-05-09 19:41:00,
2013-05-09 14:52:00,66.0,64.0,-100.00,East,80,4.0,4.0,95,-99.99,,,-99.99,,2013-05-09 19:52:00,
2013-05-09 15:01:00,66.0,64.0,-100.00,East,80,4.0,4.0,95,-99.99,,,-99.99,,2013-05-09 20:01:00,
2013-05-09 15:11:00,67.0,65.0,-100.00,East,90,4.0,6.0,95,-99.99,,,-99.99,,2013-05-09 20:11:00,
2013-05-09 15:22:00,67.0,65.0,-100.00,East,90,4.0,6.0,95,-99.99,,,-99.99,,2013-05-09 20:22:00,
2013-05-09 15:42:00,69.0,66.0,-100.00,ESE,120,6.0,6.0,88,-99.99,,,-99.99,,2013-05-09 20:42:00,
2013-05-09 15:52:00,70.0,66.0,-100.00,SE,125,3.0,4.0,87,-99.99,,,-99.99,,2013-05-09 20:52:00,
2013-05-09 16:02:00,70.0,66.0,-100.00,SE,125,3.0,4.0,87,-99.99,,,-99.99,,2013-05-09 21:02:00,
2013-05-09 16:12:00,71.0,66.0,-100.00,South,175,2.0,4.0,84,-99.99,,,-99.99,,2013-05-09 21:12:00,
2013-05-09 16:22:00,71.0,66.0,-100.00,West,280,0.0,0.0,83,-99.99,,,-99.99,,2013-05-09 21:22:00,
2013-05-09 16:32:00,71.0,66.0,-100.00,West,280,0.0,0.0,83,-99.99,,,-99.99,,2013-05-09 21:32:00,
2013-05-09 16:43:00,71.0,66.0,-100.00,West,280,0.0,0.0,83,-99.99,,,-99.99,,2013-05-09 21:43:00,
2013-05-09 16:53:00,71.0,66.0,-100.00,East,80,0.0,1.0,82,-99.99,,,-99.99,,2013-05-09 21:53:00,
2013-05-09 17:03:00,71.0,66.0,-100.00,East,80,0.0,1.0,82,-99.99,,,-99.99,,2013-05-09 22:03:00,
2013-05-09 17:13:00,71.0,66.0,-100.00,SE,140,8.0,10.0,85,-99.99,,,-99.99,,2013-05-09 22:13:00,
2013-05-09 17:23:00,67.0,62.0,-100.00,South,175,6.0,10.0,84,-99.99,,,-99.99,,2013-05-09 22:23:00,
2013-05-09 17:33:00,67.0,62.0,-100.00,South,175,6.0,10.0,84,-99.99,,,-99.99,,2013-05-09 22:33:00,
2013-05-09 17:42:00,67.0,62.0,-100.00,SSE,165,4.0,6.0,86,-99.99,,,-99.99,,2013-05-09 22:42:00,
2013-05-09 17:52:00,66.0,63.0,-100.00,South,170,3.0,4.0,89,-99.99,,,-99.99,,2013-05-09 22:52:00,
2013-05-09 18:02:00,66.0,63.0,-100.00,South,170,3.0,4.0,89,-99.99,,,-99.99,,2013-05-09 23:02:00,
2013-05-09 18:12:00,67.0,64.0,-100.00,SW,235,1.0,1.0,89,-99.99,,,-99.99,,2013-05-09 23:12:00,
2013-05-09 18:21:00,69.0,64.0,-100.00,SSW,210,3.0,6.0,83,-99.99,,,-99.99,,2013-05-09 23:21:00,
2013-05-09 18:32:00,69.0,64.0,-100.00,SSW,210,3.0,6.0,83,-99.99,,,-99.99,,2013-05-09 23:32:00,
2013-05-09 18:42:00,69.0,63.0,-100.00,SSW,205,4.0,6.0,81,-99.99,,,-99.99,,2013-05-09 23:42:00,
2013-05-09 18:52:00,70.0,64.0,-100.00,SW,215,4.0,6.0,81,-99.99,,,-99.99,,2013-05-09 23:52:00,
2013-05-09 19:01:00,70.0,64.0,-100.00,SW,215,4.0,6.0,81,-99.99,,,-99.99,,2013-05-10 00:01:00,
2013-05-09 19:11:00,70.0,64.0,-100.00,SW,215,4.0,6.0,80,-99.99,,,-99.99,,2013-05-10 00:11:00,
2013-05-09 19:22:00,71.0,65.0,-100.00,SSW,205,1.0,3.0,81,-99.99,,,-99.99,,2013-05-10 00:22:00,
2013-05-09 19:32:00,71.0,65.0,-100.00,SSW,205,1.0,3.0,81,-99.99,,,-99.99,,2013-05-10 00:32:00,
2013-05-09 19:42:00,71.0,65.0,-100.00,SSW,205,1.0,3.0,81,-99.99,,,-99.99,,2013-05-10 00:42:00,
2013-05-09 19:52:00,70.0,63.0,-100.00,West,275,1.0,2.0,77,-99.99,,,-99.99,,2013-05-10 00:52:00,
2013-05-09 20:01:00,70.0,63.0,-100.00,West,275,1.0,2.0,77,-99.99,,,-99.99,,2013-05-10 01:01:00,
2013-05-09 20:11:00,70.0,63.0,-100.00,SSW,195,2.0,4.0,77,-99.99,,,-99.99,,2013-05-10 01:11:00,
2013-05-09 20:21:00,69.0,64.0,-100.00,SE,135,0.0,1.0,83,-99.99,,,-99.99,,2013-05-10 01:21:00,
2013-05-09 20:32:00,69.0,64.0,-100.00,SE,135,0.0,1.0,83,-99.99,,,-99.99,,2013-05-10 01:32:00,
2013-05-09 20:42:00,68.0,65.0,-100.00,SE,135,0.0,1.0,90,-99.99,,,-99.99,,2013-05-10 01:42:00,
2013-05-09 20:52:00,67.0,65.0,-100.00,NW,305,0.0,0.0,92,-99.99,,,-99.99,,2013-05-10 01:52:00,
2013-05-09 21:02:00,67.0,65.0,-100.00,NW,305,0.0,0.0,92,-99.99,,,-99.99,,2013-05-10 02:02:00,
2013-05-09 21:11:00,67.0,65.0,-100.00,South,175,0.0,0.0,93,-99.99,,,-99.99,,2013-05-10 02:11:00,
2013-05-09 21:21:00,66.0,64.0,-100.00,SE,125,0.0,1.0,94,-99.99,,,-99.99,,2013-05-10 02:21:00,
2013-05-09 21:32:00,66.0,64.0,-100.00,SE,125,0.0,1.0,94,-99.99,,,-99.99,,2013-05-10 02:32:00,
2013-05-09 21:42:00,65.0,63.0,-100.00,East,85,1.0,1.0,95,-99.99,,,-99.99,,2013-05-10 02:42:00,
2013-05-09 21:52:00,65.0,64.0,-100.00,South,180,0.0,0.0,95,-99.99,,,-99.99,,2013-05-10 02:52:00,
2013-05-09 22:01:00,65.0,64.0,-100.00,South,180,0.0,0.0,95,-99.99,,,-99.99,,2013-05-10 03:01:00,
2013-05-09 22:11:00,64.0,63.0,-100.00,WSW,240,0.0,0.0,96,-99.99,,,-99.99,,2013-05-10 03:11:00,
2013-05-09 22:22:00,64.0,63.0,-100.00,NNW,345,0.0,1.0,96,-99.99,,,-99.99,,2013-05-10 03:22:00,
2013-05-09 22:33:00,64.0,63.0,-100.00,NNW,345,0.0,1.0,96,-99.99,,,-99.99,,2013-05-10 03:33:00,
2013-05-09 22:43:00,64.0,62.0,-100.00,North,355,0.0,1.0,96,-99.99,,,-99.99,,2013-05-10 03:43:00,
2013-05-09 22:53:00,63.0,62.0,-100.00,ESE,120,0.0,0.0,96,-99.99,,,-99.99,,2013-05-10 03:53:00,
2013-05-09 23:03:00,63.0,62.0,-100.00,ESE,120,0.0,0.0,96,-99.99,,,-99.99,,2013-05-10 04:03:00,
2013-05-09 23:12:00,63.0,62.0,-100.00,South,170,0.0,1.0,97,-99.99,,,-99.99,,2013-05-10 04:12:00,
2013-05-09 23:23:00,63.0,62.0,-100.00,South,185,0.0,2.0,97,-99.99,,,-99.99,,2013-05-10 04:23:00,
2013-05-09 23:30:00,63.0,62.0,-100.00,NW,305,4.0,4.0,97,-99.99,,,-99.99,,2013-05-10 04:30:00,
2013-05-09 23:33:00,63.0,62.0,-100.00,South,185,0.0,2.0,97,-99.99,,,-99.99,,2013-05-10 04:33:00,
2013-05-09 23:43:00,63.0,62.0,-100.00,East,100,1.0,2.0,97,-99.99,,,-99.99,,2013-05-10 04:43:00,
2013-05-09 23:53:00,63.0,62.0,-100.00,SSE,165,1.0,1.0,97,-99.99,,,-99.99,,2013-05-10 04:53:00,